createdAt,value
2022-10-04T00:00:11.079Z,22.6600
2022-10-04T00:01:13.265Z,22.6700
2022-10-04T00:02:15.547Z,22.6800
2022-10-04T00:03:17.720Z,22.6900
2022-10-04T00:04:19.917Z,22.6800
2022-10-04T00:05:22.142Z,22.6500
2022-10-04T00:06:22.199Z,22.6700
2022-10-04T00:07:24.378Z,22.7300
2022-10-04T00:08:26.562Z,22.6700
2022-10-04T00:09:28.763Z,22.6500
2022-10-04T00:10:30.888Z,22.6200
2022-10-04T00:11:33.044Z,22.6500
2022-10-04T00:12:35.253Z,22.6500
2022-10-04T00:13:37.468Z,22.6500
2022-10-04T00:14:39.707Z,22.6500
2022-10-04T00:15:41.893Z,22.6300
2022-10-04T00:16:44.110Z,22.6000
2022-10-04T00:17:46.325Z,22.6100
2022-10-04T00:18:48.567Z,22.6600
2022-10-04T00:19:50.813Z,22.6700
2022-10-04T00:20:53.102Z,22.6700
2022-10-04T00:21:55.368Z,22.6400
2022-10-04T00:22:55.477Z,22.6300
2022-10-04T00:23:57.723Z,22.5700
2022-10-04T00:24:59.999Z,22.5900
2022-10-04T00:26:02.212Z,22.6000
2022-10-04T00:27:04.450Z,22.5800
2022-10-04T00:28:06.746Z,22.5900
2022-10-04T00:29:08.917Z,22.5800
2022-10-04T00:30:11.230Z,22.5700
2022-10-04T00:31:13.527Z,22.5600
2022-10-04T00:32:13.627Z,22.5400
2022-10-04T00:33:15.924Z,22.5300
2022-10-04T00:34:18.227Z,22.5600
2022-10-04T00:35:20.538Z,22.5600
2022-10-04T00:36:22.773Z,22.5600
2022-10-04T00:37:24.945Z,22.5800
2022-10-04T00:38:27.144Z,22.6100
2022-10-04T00:39:29.380Z,22.5800
2022-10-04T00:40:29.495Z,22.5400
2022-10-04T00:41:31.658Z,22.5300
2022-10-04T00:43:19.078Z,22.4900
2022-10-04T00:44:21.195Z,22.4500
2022-10-04T00:45:21.230Z,22.4800
2022-10-04T00:46:23.525Z,22.5100
2022-10-04T00:47:25.672Z,22.4900
2022-10-04T00:48:31.425Z,22.5000
2022-10-04T00:49:30.154Z,22.5000
2022-10-04T00:50:32.343Z,22.5000
2022-10-04T00:51:34.628Z,22.5000
2022-10-04T00:52:36.745Z,22.5000
2022-10-04T00:53:38.916Z,22.5000
2022-10-04T00:54:41.133Z,22.5100
2022-10-04T00:55:43.314Z,22.5100
2022-10-04T00:56:45.508Z,22.4800
2022-10-04T00:57:47.675Z,22.4800
2022-10-04T00:58:49.836Z,22.4500
2022-10-04T00:59:52.047Z,22.5000
2022-10-04T01:00:54.345Z,22.5100
2022-10-04T01:01:56.574Z,22.4900
2022-10-04T01:02:58.681Z,22.4700
2022-10-04T01:03:58.758Z,22.4600
2022-10-04T01:05:00.935Z,22.4500
2022-10-04T01:06:03.127Z,22.4300
2022-10-04T01:07:05.384Z,22.4300
2022-10-04T01:08:07.517Z,22.4600
2022-10-04T01:09:09.655Z,22.4600
2022-10-04T01:10:11.818Z,22.4400
2022-10-04T01:11:14.016Z,22.4300
2022-10-04T01:12:16.240Z,22.4400
2022-10-04T01:13:18.420Z,22.4400
2022-10-04T01:14:20.620Z,22.4400
2022-10-04T01:15:22.851Z,22.4600
2022-10-04T01:16:25.128Z,22.4700
2022-10-04T01:17:27.276Z,22.4500
2022-10-04T01:18:29.473Z,22.4500
2022-10-04T01:19:29.542Z,22.4100
2022-10-04T01:20:31.767Z,22.4300
2022-10-04T01:21:33.997Z,22.4400
2022-10-04T01:22:36.263Z,22.4200
2022-10-04T01:23:38.424Z,22.4200
2022-10-04T01:24:40.612Z,22.4400
2022-10-04T01:25:42.817Z,22.4200
2022-10-04T01:26:44.976Z,22.4100
2022-10-04T01:27:47.220Z,22.4300
2022-10-04T01:28:49.389Z,22.4100
2022-10-04T01:29:51.876Z,22.4200
2022-10-04T01:30:53.759Z,22.3900
2022-10-04T01:31:56.036Z,22.4000
2022-10-04T01:32:58.135Z,22.4000
2022-10-04T01:34:00.266Z,22.4000
2022-10-04T01:35:02.465Z,22.4300
2022-10-04T01:36:04.642Z,22.4100
2022-10-04T01:37:06.840Z,22.4100
2022-10-04T01:38:09.108Z,22.4000
2022-10-04T01:39:09.123Z,22.3900
2022-10-04T01:40:11.338Z,22.4100
2022-10-04T01:41:13.562Z,22.3700
2022-10-04T01:42:15.777Z,22.3800
2022-10-04T01:43:18.021Z,22.3900
2022-10-04T01:44:20.205Z,22.3800
2022-10-04T01:45:22.373Z,22.3600
2022-10-04T01:46:24.610Z,22.3500
2022-10-04T01:47:26.766Z,22.3700
2022-10-04T01:48:29.009Z,22.3300
2022-10-04T01:49:31.163Z,22.3500
2022-10-04T01:50:33.356Z,22.3800
2022-10-04T01:51:35.566Z,22.3900
2022-10-04T01:52:37.754Z,22.3200
2022-10-04T01:53:39.985Z,22.3400
2022-10-04T01:54:40.005Z,22.3100
2022-10-04T01:55:42.264Z,22.3200
2022-10-04T01:56:44.555Z,22.3100
2022-10-04T01:57:46.848Z,22.2900
2022-10-04T01:58:49.116Z,22.2900
2022-10-04T01:59:51.321Z,22.2900
2022-10-04T02:00:53.571Z,22.2800
2022-10-04T02:01:55.761Z,22.3000
2022-10-04T02:02:57.970Z,22.3000
2022-10-04T02:04:00.251Z,22.2900
2022-10-04T02:05:00.431Z,22.3300
2022-10-04T02:06:02.615Z,22.3700
2022-10-04T02:07:04.908Z,22.3300
2022-10-04T02:08:07.205Z,22.3200
2022-10-04T02:09:09.562Z,22.3000
2022-10-04T02:10:11.801Z,22.3000
2022-10-04T02:11:14.057Z,22.3100
2022-10-04T02:12:14.184Z,22.2900
2022-10-04T02:13:16.412Z,22.2700
2022-10-04T02:14:18.700Z,22.2700
2022-10-04T02:15:20.937Z,22.2500
2022-10-04T02:16:23.283Z,22.2100
2022-10-04T02:17:25.504Z,22.2200
2022-10-04T02:18:27.744Z,22.2200
2022-10-04T02:19:30.019Z,22.2300
2022-10-04T02:20:30.095Z,22.2500
2022-10-04T02:21:32.343Z,22.3000
2022-10-04T02:22:34.606Z,22.2900
2022-10-04T02:23:36.876Z,22.3100
2022-10-04T02:24:39.214Z,22.2800
2022-10-04T02:25:41.348Z,22.2500
2022-10-04T02:26:43.583Z,22.3000
2022-10-04T02:27:45.819Z,22.2700
2022-10-04T02:28:48.030Z,22.2500
2022-10-04T02:29:50.308Z,22.2300
2022-10-04T02:30:52.597Z,22.2300
2022-10-04T02:31:52.670Z,22.2000
2022-10-04T02:32:54.946Z,22.2100
2022-10-04T02:33:57.222Z,22.2500
2022-10-04T02:34:59.520Z,22.2800
2022-10-04T02:36:01.784Z,22.2700
2022-10-04T02:37:04.061Z,22.2400
2022-10-04T02:38:06.352Z,22.2400
2022-10-04T02:39:06.492Z,22.2500
2022-10-04T02:40:08.839Z,22.2300
2022-10-04T02:41:11.099Z,22.2200
2022-10-04T02:42:13.406Z,22.2400
2022-10-04T02:43:15.669Z,22.2300
2022-10-04T02:44:17.897Z,22.2000
2022-10-04T02:45:20.131Z,22.2100
2022-10-04T02:46:22.392Z,22.2100
2022-10-04T02:47:24.526Z,22.1900
2022-10-04T02:48:24.703Z,22.2100
2022-10-04T02:49:26.814Z,22.2000
2022-10-04T02:50:29.063Z,22.1800
2022-10-04T02:51:31.252Z,22.1700
2022-10-04T02:52:33.495Z,22.1800
2022-10-04T02:53:35.713Z,22.1900
2022-10-04T02:54:37.955Z,22.2000
2022-10-04T02:55:40.271Z,22.2100
2022-10-04T02:56:42.477Z,22.2200
2022-10-04T02:57:44.754Z,22.2200
2022-10-04T02:58:44.903Z,22.2200
2022-10-04T02:59:47.162Z,22.2500
2022-10-04T03:00:49.520Z,22.2300
2022-10-04T03:02:30.696Z,22.1800
2022-10-04T03:03:32.504Z,22.1500
2022-10-04T03:04:34.664Z,22.1800
2022-10-04T03:05:36.783Z,22.1700
2022-10-04T03:06:38.939Z,22.1300
2022-10-04T03:07:41.042Z,22.1100
2022-10-04T03:08:43.234Z,22.1500
2022-10-04T03:09:45.487Z,22.1800
2022-10-04T03:10:47.747Z,22.1500
2022-10-04T03:11:50.009Z,22.1400
2022-10-04T03:12:52.241Z,22.1500
2022-10-04T03:13:52.368Z,22.1400
2022-10-04T03:14:54.598Z,22.1300
2022-10-04T03:15:56.897Z,22.1600
2022-10-04T03:16:59.092Z,22.1200
2022-10-04T03:18:01.312Z,22.1200
2022-10-04T03:19:03.566Z,22.1400
2022-10-04T03:20:05.819Z,22.1300
2022-10-04T03:21:08.077Z,22.1400
2022-10-04T03:22:10.362Z,22.1300
2022-10-04T03:23:10.447Z,22.1200
2022-10-04T03:24:12.708Z,22.1000
2022-10-04T03:25:14.964Z,22.0800
2022-10-04T03:26:17.229Z,22.0900
2022-10-04T03:27:19.435Z,22.1300
2022-10-04T03:28:21.759Z,22.1000
2022-10-04T03:29:23.867Z,22.0600
2022-10-04T03:30:26.064Z,22.0800
2022-10-04T03:31:28.333Z,22.1200
2022-10-04T03:32:30.697Z,22.1000
2022-10-04T03:33:32.748Z,22.1300
2022-10-04T03:34:34.997Z,22.1100
2022-10-04T03:35:35.094Z,22.0900
2022-10-04T03:36:37.356Z,22.1100
2022-10-04T03:37:39.602Z,22.0700
2022-10-04T03:38:41.818Z,22.0700
2022-10-04T03:39:44.064Z,22.1000
2022-10-04T03:40:46.296Z,22.1000
2022-10-04T03:41:48.551Z,22.0900
2022-10-04T03:42:50.786Z,22.0900
2022-10-04T03:43:53.012Z,22.0900
2022-10-04T03:44:53.119Z,22.1100
2022-10-04T03:45:55.382Z,22.0700
2022-10-04T03:46:57.596Z,22.0500
2022-10-04T03:47:59.855Z,22.0500
2022-10-04T03:49:02.021Z,22.0900
2022-10-04T03:50:04.264Z,22.0900
2022-10-04T03:51:06.532Z,22.0900
2022-10-04T03:52:08.788Z,22.1100
2022-10-04T03:53:11.101Z,22.1100
2022-10-04T03:54:13.275Z,22.1200
2022-10-04T03:55:15.536Z,22.0800
2022-10-04T03:56:15.641Z,22.0600
2022-10-04T03:57:17.905Z,22.0400
2022-10-04T03:58:20.154Z,22.0500
2022-10-04T03:59:22.362Z,22.0700
2022-10-04T04:00:24.594Z,22.0600
2022-10-04T04:01:26.932Z,22.0700
2022-10-04T04:02:29.187Z,22.0500
2022-10-04T04:03:31.436Z,22.0100
2022-10-04T04:04:33.615Z,21.9900
2022-10-04T04:05:35.861Z,22.0500
2022-10-04T04:06:36.005Z,22.0500
2022-10-04T04:07:38.247Z,22.0300
2022-10-04T04:08:40.566Z,22.0300
2022-10-04T04:09:42.779Z,22.0000
2022-10-04T04:10:44.987Z,22.0100
2022-10-04T04:11:47.244Z,22.0100
2022-10-04T04:12:49.481Z,22.0000
2022-10-04T04:13:51.755Z,22.0200
2022-10-04T04:14:51.816Z,22.0200
2022-10-04T04:15:54.091Z,22.0300
2022-10-04T04:16:56.323Z,22.0100
2022-10-04T04:17:58.622Z,22.0300
2022-10-04T04:19:00.961Z,22.0300
2022-10-04T04:20:07.180Z,22.0200
2022-10-04T04:21:05.531Z,22.0100
2022-10-04T04:22:07.813Z,22.0200
2022-10-04T04:23:07.946Z,22.0200
2022-10-04T04:24:10.245Z,22.0200
2022-10-04T04:25:12.448Z,22.0300
2022-10-04T04:26:14.728Z,22.0000
2022-10-04T04:27:17.008Z,22.0200
2022-10-04T04:28:19.385Z,22.0600
2022-10-04T04:29:21.597Z,22.0500
2022-10-04T04:30:23.834Z,22.0600
2022-10-04T04:31:24.007Z,22.0700
2022-10-04T04:32:26.158Z,22.0800
2022-10-04T04:33:28.370Z,22.0300
2022-10-04T04:35:22.273Z,21.9400
2022-10-04T04:36:24.396Z,21.9300
2022-10-04T04:37:26.616Z,21.9600
2022-10-04T04:38:28.854Z,21.9700
2022-10-04T04:39:31.116Z,22.0400
2022-10-04T04:40:33.396Z,22.0000
2022-10-04T04:41:35.660Z,22.0000
2022-10-04T04:42:37.949Z,22.0000
2022-10-04T04:43:38.122Z,22.0000
2022-10-04T04:44:40.333Z,21.9700
2022-10-04T04:45:42.613Z,21.9700
2022-10-04T04:46:44.866Z,21.9500
2022-10-04T04:47:47.042Z,21.9400
2022-10-04T04:48:49.279Z,21.9400
2022-10-04T04:49:51.513Z,21.9300
2022-10-04T04:50:53.768Z,21.9200
2022-10-04T04:51:55.965Z,21.9400
2022-10-04T04:52:58.133Z,21.9600
2022-10-04T04:54:00.357Z,21.9600
2022-10-04T04:55:02.535Z,21.9400
2022-10-04T04:56:05.349Z,21.9300
2022-10-04T04:57:04.917Z,21.9400
2022-10-04T04:58:07.202Z,22.0100
2022-10-04T04:59:09.505Z,22.0100
2022-10-04T05:00:11.738Z,22.0100
2022-10-04T05:01:14.128Z,22.0200
2022-10-04T05:02:16.285Z,22.0200
2022-10-04T05:03:18.493Z,22.0400
2022-10-04T05:04:20.763Z,22.0200
2022-10-04T05:05:20.884Z,21.9900
2022-10-04T05:06:23.200Z,22.0000
2022-10-04T05:07:25.438Z,22.0100
2022-10-04T05:08:27.697Z,21.9800
2022-10-04T05:09:29.976Z,21.9600
2022-10-04T05:10:32.262Z,21.9600
2022-10-04T05:11:34.571Z,21.9700
2022-10-04T05:12:34.656Z,21.9600
2022-10-04T05:13:36.903Z,21.9900
2022-10-04T05:14:39.189Z,22.0100
2022-10-04T05:15:41.446Z,22.0000
2022-10-04T05:16:43.903Z,21.9600
2022-10-04T05:17:46.006Z,21.9400
2022-10-04T05:18:48.260Z,21.9400
2022-10-04T05:19:50.540Z,21.9700
2022-10-04T05:20:52.802Z,21.9600
2022-10-04T05:21:52.890Z,21.9700
2022-10-04T05:22:55.144Z,21.9600
2022-10-04T05:23:57.306Z,21.9600
2022-10-04T05:24:59.524Z,21.9500
2022-10-04T05:26:01.743Z,21.9400
2022-10-04T05:27:03.935Z,21.9600
2022-10-04T05:28:06.116Z,21.9500
2022-10-04T05:29:08.281Z,21.9400
2022-10-04T05:30:10.523Z,21.9300
2022-10-04T05:31:12.747Z,21.9400
2022-10-04T05:32:14.954Z,21.9300
2022-10-04T05:33:17.107Z,21.9300
2022-10-04T05:34:19.313Z,21.9400
2022-10-04T05:35:21.581Z,21.9300
2022-10-04T05:36:23.840Z,21.9200
2022-10-04T05:37:23.959Z,21.9400
2022-10-04T05:38:26.200Z,21.9300
2022-10-04T05:39:28.471Z,21.9400
2022-10-04T05:40:30.629Z,21.9300
2022-10-04T05:43:03.092Z,21.8800
2022-10-04T05:44:05.198Z,21.8900
2022-10-04T05:45:05.270Z,21.8700
2022-10-04T05:46:07.682Z,21.9100
2022-10-04T05:47:09.764Z,21.9000
2022-10-04T05:48:12.058Z,21.9300
2022-10-04T05:49:18.911Z,21.9300
2022-10-04T05:50:16.600Z,21.9200
2022-10-04T05:51:18.849Z,21.9400
2022-10-04T05:52:21.109Z,21.9400
2022-10-04T05:53:23.397Z,21.9200
2022-10-04T05:54:23.475Z,21.9100
2022-10-04T05:55:25.710Z,21.9000
2022-10-04T05:56:27.961Z,21.8900
2022-10-04T05:57:30.233Z,21.8800
2022-10-04T05:58:32.519Z,21.8900
2022-10-04T05:59:34.749Z,21.8900
2022-10-04T06:00:36.995Z,21.9000
2022-10-04T06:01:39.346Z,21.8900
2022-10-04T06:02:41.559Z,21.9000
2022-10-04T06:03:41.608Z,21.9200
2022-10-04T06:04:43.789Z,21.9200
2022-10-04T06:05:46.017Z,21.9200
2022-10-04T06:06:48.196Z,21.9200
2022-10-04T06:07:50.385Z,21.9300
2022-10-04T06:08:52.636Z,21.9100
2022-10-04T06:09:54.840Z,21.9200
2022-10-04T06:10:57.082Z,21.9200
2022-10-04T06:11:59.322Z,21.9300
2022-10-04T06:13:01.568Z,21.9300
2022-10-04T06:14:03.822Z,21.9000
2022-10-04T06:15:06.072Z,21.8900
2022-10-04T06:16:06.182Z,21.8900
2022-10-04T06:17:08.473Z,21.8800
2022-10-04T06:18:10.691Z,21.8700
2022-10-04T06:19:12.998Z,21.8900
2022-10-04T06:20:15.258Z,21.9000
2022-10-04T06:21:17.543Z,21.9000
2022-10-04T06:22:19.826Z,21.9100
2022-10-04T06:23:22.067Z,21.9100
2022-10-04T06:24:26.723Z,21.9400
2022-10-04T06:25:24.385Z,21.9300
2022-10-04T06:26:26.637Z,21.9400
2022-10-04T06:27:28.957Z,21.9500
2022-10-04T06:28:31.306Z,21.9200
2022-10-04T06:29:33.623Z,21.9000
2022-10-04T06:30:35.964Z,21.9300
2022-10-04T06:31:36.081Z,21.9300
2022-10-04T06:32:38.469Z,21.8800
2022-10-04T06:33:40.748Z,21.8900
2022-10-04T06:34:43.075Z,21.9100
2022-10-04T06:35:45.309Z,21.8800
2022-10-04T06:36:47.575Z,21.8800
2022-10-04T06:37:49.898Z,21.9100
2022-10-04T06:38:50.054Z,21.9200
2022-10-04T06:39:52.385Z,21.9000
2022-10-04T06:40:54.667Z,21.8800
2022-10-04T06:41:56.962Z,21.8700
2022-10-04T06:42:59.270Z,21.9000
2022-10-04T06:44:01.569Z,21.9200
2022-10-04T06:45:01.765Z,21.9300
2022-10-04T06:46:04.149Z,21.9200
2022-10-04T06:47:06.308Z,21.9100
2022-10-04T06:48:08.608Z,21.9100
2022-10-04T06:49:10.853Z,21.9100
2022-10-04T06:50:10.993Z,21.9100
2022-10-04T06:51:13.231Z,21.9400
2022-10-04T06:52:17.518Z,21.9000
2022-10-04T06:53:17.759Z,21.9200
2022-10-04T06:54:20.021Z,21.9100
2022-10-04T06:55:22.354Z,21.9000
2022-10-04T06:56:24.614Z,21.9200
2022-10-04T06:57:24.758Z,21.9000
2022-10-04T06:58:27.066Z,21.9200
2022-10-04T06:59:29.344Z,21.9000
2022-10-04T07:00:31.627Z,21.9200
2022-10-04T07:01:33.915Z,21.9000
2022-10-04T07:02:36.209Z,21.9000
2022-10-04T07:03:38.525Z,21.9000
2022-10-04T07:05:06.487Z,21.9000
2022-10-04T07:05:40.991Z,21.8700
2022-10-04T07:06:43.282Z,21.8700
2022-10-04T07:07:45.568Z,21.9100
2022-10-04T07:08:47.793Z,21.8900
2022-10-04T07:09:50.031Z,21.8700
2022-10-04T07:10:52.288Z,21.8800
2022-10-04T07:11:54.509Z,21.9100
2022-10-04T07:12:54.650Z,21.9200
2022-10-04T07:13:56.915Z,21.9100
2022-10-04T07:14:59.186Z,21.8900
2022-10-04T07:16:01.582Z,21.8800
2022-10-04T07:17:03.751Z,21.8900
2022-10-04T07:18:06.019Z,21.9100
2022-10-04T07:19:08.302Z,21.9200
2022-10-04T07:20:10.543Z,21.9000
2022-10-04T07:21:10.699Z,21.8900
2022-10-04T07:22:12.906Z,21.8900
2022-10-04T07:23:15.137Z,21.8900
2022-10-04T07:24:17.380Z,21.9000
2022-10-04T07:25:17.526Z,21.8900
2022-10-04T07:26:19.878Z,21.9100
2022-10-04T07:27:22.123Z,21.9000
2022-10-04T07:28:22.331Z,21.9100
2022-10-04T07:29:24.548Z,21.8900
2022-10-04T07:30:26.816Z,21.9300
2022-10-04T07:31:29.227Z,21.9400
2022-10-04T07:32:31.358Z,21.9500
2022-10-04T07:33:33.613Z,21.9500
2022-10-04T07:34:35.881Z,21.9300
2022-10-04T07:36:41.485Z,21.9100
2022-10-04T07:37:42.575Z,21.9100
2022-10-04T07:38:44.846Z,21.9200
2022-10-04T07:39:47.062Z,21.9200
2022-10-04T07:40:49.324Z,21.9300
2022-10-04T07:41:49.638Z,21.9300
2022-10-04T07:42:51.662Z,21.9600
2022-10-04T07:43:53.912Z,21.9700
2022-10-04T07:44:56.186Z,21.9600
2022-10-04T07:45:58.457Z,22.0100
2022-10-04T07:47:00.686Z,22.0000
2022-10-04T07:48:02.947Z,21.9900
2022-10-04T07:49:05.216Z,21.9800
2022-10-04T07:50:07.459Z,22.0100
2022-10-04T07:51:07.556Z,21.9800
2022-10-04T07:52:09.791Z,21.9700
2022-10-04T07:53:11.993Z,21.9900
2022-10-04T07:54:14.270Z,21.9800
2022-10-04T07:55:16.463Z,21.9900
2022-10-04T07:56:18.642Z,21.9800
2022-10-04T07:57:20.892Z,22.0000
2022-10-04T07:58:23.095Z,22.0000
2022-10-04T07:59:25.257Z,21.9900
2022-10-04T08:00:27.418Z,21.9900
2022-10-04T08:01:29.625Z,21.9700
2022-10-04T08:02:31.960Z,21.9800
2022-10-04T08:03:33.967Z,21.9700
2022-10-04T08:04:36.025Z,21.9900
2022-10-04T08:05:38.204Z,21.9700
2022-10-04T08:06:40.578Z,21.9700
2022-10-04T08:07:42.500Z,21.9600
2022-10-04T08:08:44.713Z,21.9800
2022-10-04T08:09:46.989Z,21.9800
2022-10-04T08:10:49.201Z,21.9900
2022-10-04T08:11:49.281Z,21.9800
2022-10-04T08:12:51.486Z,21.9700
2022-10-04T08:13:53.692Z,21.9900
2022-10-04T08:14:55.926Z,22.0100
2022-10-04T08:15:58.163Z,22.0300
2022-10-04T08:17:00.357Z,22.0300
2022-10-04T08:18:02.628Z,22.0400
2022-10-04T08:19:04.834Z,22.0200
2022-10-04T08:20:07.077Z,21.9900
2022-10-04T08:21:09.436Z,22.0200
2022-10-04T08:22:11.527Z,22.0200
2022-10-04T08:23:13.793Z,22.0100
2022-10-04T08:24:13.839Z,21.9900
2022-10-04T08:25:16.057Z,21.9900
2022-10-04T08:26:18.204Z,22.0000
2022-10-04T08:27:20.387Z,22.0000
2022-10-04T08:28:22.736Z,22.0000
2022-10-04T08:29:24.782Z,22.0100
2022-10-04T08:30:26.975Z,22.0100
2022-10-04T08:31:29.267Z,22.0400
2022-10-04T08:32:31.332Z,22.0500
2022-10-04T08:33:33.548Z,22.0300
2022-10-04T08:34:35.691Z,22.0400
2022-10-04T08:35:37.891Z,22.0600
2022-10-04T08:36:40.543Z,22.0500
2022-10-04T08:37:42.273Z,22.0300
2022-10-04T08:38:44.555Z,22.0500
2022-10-04T08:39:44.602Z,22.0000
2022-10-04T08:40:46.865Z,22.0100
2022-10-04T08:41:49.116Z,22.0000
2022-10-04T08:42:51.368Z,22.0100
2022-10-04T08:43:53.678Z,22.0300
2022-10-04T08:44:55.792Z,22.0300
2022-10-04T08:45:58.126Z,22.0300
2022-10-04T08:47:00.271Z,22.0400
2022-10-04T08:48:02.533Z,22.0600
2022-10-04T08:49:04.823Z,22.0400
2022-10-04T08:50:04.905Z,22.0500
2022-10-04T08:51:07.142Z,22.0600
2022-10-04T08:52:09.418Z,22.0900
2022-10-04T08:53:11.645Z,22.0700
2022-10-04T08:54:13.911Z,22.0800
2022-10-04T08:55:16.071Z,22.0800
2022-10-04T08:56:18.275Z,22.0900
2022-10-04T08:57:20.448Z,22.0800
2022-10-04T08:58:22.590Z,22.0700
2022-10-04T08:59:24.808Z,22.0800
2022-10-04T09:00:27.023Z,22.0600
2022-10-04T09:01:29.339Z,22.0500
2022-10-04T09:02:31.545Z,22.0700
2022-10-04T09:03:31.573Z,22.0600
2022-10-04T09:04:33.845Z,22.0900
2022-10-04T09:05:36.032Z,22.1000
2022-10-04T09:06:38.229Z,22.1100
2022-10-04T09:07:40.447Z,22.1200
2022-10-04T09:08:42.626Z,22.1400
2022-10-04T09:09:44.865Z,22.1700
2022-10-04T09:10:47.082Z,22.1600
2022-10-04T09:11:49.336Z,22.1500
2022-10-04T09:12:51.565Z,22.1400
2022-10-04T09:13:53.726Z,22.1300
2022-10-04T09:14:56.077Z,22.1600
2022-10-04T09:15:58.153Z,22.1700
2022-10-04T09:17:00.324Z,22.1800
2022-10-04T09:18:00.377Z,22.1700
2022-10-04T09:19:02.562Z,22.2000
2022-10-04T09:20:33.521Z,22.2100
2022-10-04T09:21:06.942Z,22.1700
2022-10-04T09:22:09.158Z,22.1900
2022-10-04T09:23:11.476Z,22.1800
2022-10-04T09:24:13.595Z,22.1900
2022-10-04T09:25:15.822Z,22.1700
2022-10-04T09:26:18.035Z,22.1800
2022-10-04T09:27:50.073Z,22.1900
2022-10-04T09:28:22.538Z,22.2200
2022-10-04T09:29:22.519Z,22.2800
2022-10-04T09:30:24.684Z,22.3100
2022-10-04T09:31:26.827Z,22.3300
2022-10-04T09:32:28.980Z,22.4000
2022-10-04T09:33:31.178Z,22.4300
2022-10-04T09:34:37.208Z,22.4100
2022-10-04T09:35:35.550Z,22.4100
2022-10-04T09:36:37.700Z,22.3800
2022-10-04T09:37:39.875Z,22.3600
2022-10-04T09:38:42.047Z,22.3800
2022-10-04T09:39:44.218Z,22.4100
2022-10-04T09:40:47.421Z,22.3700
2022-10-04T09:41:48.585Z,22.3500
2022-10-04T09:42:50.751Z,22.3700
2022-10-04T09:43:52.942Z,22.3900
2022-10-04T09:44:55.133Z,22.3900
2022-10-04T09:45:57.431Z,22.3700
2022-10-04T09:46:59.563Z,22.3700
2022-10-04T09:48:01.842Z,22.3800
2022-10-04T09:49:04.024Z,22.3500
2022-10-04T09:50:06.230Z,22.3800
2022-10-04T09:51:08.524Z,22.3800
2022-10-04T09:52:08.607Z,22.4100
2022-10-04T09:53:09.745Z,22.4100
2022-10-04T09:54:12.054Z,22.2900
2022-10-04T09:55:12.127Z,22.2600
2022-10-04T09:56:15.538Z,22.2800
2022-10-04T09:57:15.629Z,22.3500
2022-10-04T09:58:17.866Z,22.3800
2022-10-04T09:59:20.120Z,22.4400
2022-10-04T10:00:22.348Z,22.4800
2022-10-04T10:01:24.685Z,22.5000
2022-10-04T10:02:26.867Z,22.5200
2022-10-04T10:03:29.108Z,22.5400
2022-10-04T10:04:31.370Z,22.5600
2022-10-04T10:05:31.510Z,22.5500
2022-10-04T10:06:33.805Z,22.5400
2022-10-04T10:07:36.029Z,22.5500
2022-10-04T10:08:38.285Z,22.5400
2022-10-04T10:09:40.545Z,22.5400
2022-10-04T10:10:42.808Z,22.5600
2022-10-04T10:13:17.480Z,22.5400
2022-10-04T10:14:19.582Z,22.5600
2022-10-04T10:15:21.779Z,22.5600
2022-10-04T10:16:24.074Z,22.5600
2022-10-04T10:17:26.217Z,22.5800
2022-10-04T10:18:28.469Z,22.5900
2022-10-04T10:19:30.656Z,22.5900
2022-10-04T10:20:32.886Z,22.6100
2022-10-04T10:21:35.105Z,22.6600
2022-10-04T10:22:37.265Z,22.7100
2022-10-04T10:23:39.453Z,22.7200
2022-10-04T10:24:41.591Z,22.7200
2022-10-04T10:25:43.772Z,22.7200
2022-10-04T10:26:46.366Z,22.6700
2022-10-04T10:27:48.079Z,22.7400
2022-10-04T10:28:48.141Z,22.7600
2022-10-04T10:29:50.301Z,22.7300
2022-10-04T10:30:52.545Z,22.7400
2022-10-04T10:31:54.683Z,22.7500
2022-10-04T10:32:56.856Z,22.7300
2022-10-04T10:33:59.019Z,22.8200
2022-10-04T10:35:01.155Z,22.8600
2022-10-04T10:36:03.282Z,22.8300
2022-10-04T10:37:05.455Z,22.8500
2022-10-04T10:38:07.622Z,22.8700
2022-10-04T10:39:09.823Z,22.8700
2022-10-04T10:40:12.020Z,22.8900
2022-10-04T10:41:14.203Z,22.9100
2022-10-04T10:42:16.306Z,22.9200
2022-10-04T10:43:18.526Z,22.9300
2022-10-04T10:44:20.963Z,22.9000
2022-10-04T10:45:22.972Z,22.9200
2022-10-04T10:46:25.271Z,22.8800
2022-10-04T10:47:27.424Z,22.8900
2022-10-04T10:48:27.533Z,22.9100
2022-10-04T10:49:29.754Z,22.9400
2022-10-04T10:50:31.907Z,22.9400
2022-10-04T10:51:34.091Z,22.9400
2022-10-04T10:52:36.292Z,23.0100
2022-10-04T10:53:38.528Z,23.0300
2022-10-04T10:54:40.787Z,23.0600
2022-10-04T10:55:42.992Z,23.0400
2022-10-04T10:56:45.538Z,23.0200
2022-10-04T10:57:47.474Z,23.0500
2022-10-04T10:58:49.718Z,23.0300
2022-10-04T10:59:52.004Z,23.0400
2022-10-04T11:00:54.204Z,23.0600
2022-10-04T11:01:54.476Z,23.0600
2022-10-04T11:03:11.805Z,23.0700
2022-10-04T11:03:58.804Z,23.0200
2022-10-04T11:05:00.967Z,23.0500
2022-10-04T11:06:03.144Z,23.0500
2022-10-04T11:07:05.360Z,23.0300
2022-10-04T11:08:07.574Z,23.0600
2022-10-04T11:09:09.755Z,23.0700
2022-10-04T11:10:12.003Z,23.0600
2022-10-04T11:11:14.151Z,23.0600
2022-10-04T11:12:16.344Z,23.0800
2022-10-04T11:13:18.507Z,23.0800
2022-10-04T11:14:20.701Z,23.1200
2022-10-04T11:15:22.958Z,23.1300
2022-10-04T11:16:25.156Z,23.1500
2022-10-04T11:17:27.298Z,23.1700
2022-10-04T11:18:27.366Z,23.1500
2022-10-04T11:19:29.601Z,23.1100
2022-10-04T11:20:31.859Z,23.1000
2022-10-04T11:21:34.050Z,23.1000
2022-10-04T11:22:38.523Z,23.1000
2022-10-04T11:23:38.543Z,23.1000
2022-10-04T11:24:40.768Z,23.0900
2022-10-04T11:25:42.994Z,23.1100
2022-10-04T11:26:45.421Z,23.0800
2022-10-04T11:27:49.392Z,23.0900
2022-10-04T11:28:49.529Z,23.0900
2022-10-04T11:29:51.726Z,23.1000
2022-10-04T11:30:54.007Z,23.1200
2022-10-04T11:31:56.122Z,23.1200
2022-10-04T11:32:58.319Z,23.1100
2022-10-04T11:34:00.507Z,23.1000
2022-10-04T11:35:00.563Z,23.1000
2022-10-04T11:36:02.814Z,23.1000
2022-10-04T11:37:04.987Z,23.0800
2022-10-04T11:38:07.189Z,23.0900
2022-10-04T11:39:09.403Z,23.0900
2022-10-04T11:40:11.608Z,23.0900
2022-10-04T11:41:13.839Z,23.1100
2022-10-04T11:42:15.996Z,23.1100
2022-10-04T11:43:18.209Z,23.1300
2022-10-04T11:44:20.380Z,23.1500
2022-10-04T11:45:22.532Z,23.0400
2022-10-04T11:46:24.901Z,22.5000
2022-10-04T11:47:26.979Z,22.3300
2022-10-04T11:48:29.170Z,21.8100
2022-10-04T11:49:31.375Z,21.6300
2022-10-04T11:50:33.622Z,21.3800
2022-10-04T11:51:33.728Z,21.3300
2022-10-04T11:52:35.919Z,21.2000
2022-10-04T11:53:38.164Z,21.3200
2022-10-04T11:54:40.394Z,21.5800
2022-10-04T11:55:40.470Z,21.7100
2022-10-04T11:56:43.213Z,21.4900
2022-10-04T11:57:44.929Z,21.4300
2022-10-04T11:58:47.198Z,21.4400
2022-10-04T11:59:49.404Z,21.1200
2022-10-04T12:00:51.653Z,21.0000
2022-10-04T12:01:53.958Z,20.8700
2022-10-04T12:02:54.028Z,20.9800
2022-10-04T12:03:56.402Z,21.2300
2022-10-04T12:04:58.578Z,21.1700
2022-10-04T12:06:00.783Z,21.2300
2022-10-04T12:07:03.055Z,21.2300
2022-10-04T12:08:05.263Z,21.2300
2022-10-04T12:09:07.528Z,21.3200
2022-10-04T12:10:09.771Z,21.2900
2022-10-04T12:11:12.057Z,21.1700
2022-10-04T12:12:12.217Z,21.2300
2022-10-04T12:13:14.438Z,21.1100
2022-10-04T12:14:16.712Z,21.1400
2022-10-04T12:15:18.913Z,21.1600
2022-10-04T12:16:21.248Z,21.0100
2022-10-04T12:17:23.418Z,21.0500
2022-10-04T12:18:25.633Z,21.2100
2022-10-04T12:19:27.844Z,21.2700
2022-10-04T12:20:30.048Z,21.2100
2022-10-04T12:21:32.289Z,21.2900
2022-10-04T12:22:32.448Z,21.4100
2022-10-04T12:23:34.685Z,21.4400
2022-10-04T12:24:36.968Z,21.3100
2022-10-04T12:25:39.266Z,21.2700
2022-10-04T12:26:41.463Z,21.3600
2022-10-04T12:27:43.690Z,21.5400
2022-10-04T12:28:45.861Z,21.6800
2022-10-04T12:29:48.118Z,21.8100
2022-10-04T12:30:50.270Z,21.9000
2022-10-04T12:31:52.552Z,21.9300
2022-10-04T12:32:57.981Z,21.9600
2022-10-04T12:33:56.865Z,22.0600
2022-10-04T12:34:59.013Z,22.0600
2022-10-04T12:36:01.225Z,22.1000